Norma, New Jersey
Current Conditions -  °F | °C
As of 7:54 AM on Wednesday 22 Oct 2014 (Local Time) from KMIV Reporting Station
Overcast Overcast  
Wind Chill: 55°   Ceiling: 1100
Heat Index: 55°   Visibility: 10mi
Dew Point: 53°   Wind: 7mph
Humidity: 93%   Direction: 360°N
Pressure: 29.84"   Gusts: NA
Location:  39.5°N, 75.09°W
Report Text: KMIV 221154Z AUTO 36006KT 10SM BKN011 OVC050 13/12 A2984 RMK AO2 SLP104 6//// 7//// T01280117 10139 20128 53017 PNO $
Loading
Personal Weather Stations






























Interactive Weather Map New forecast layout! Learn more

10-Day Weather Forecast

Advertisements
Track Severe Weather on mobile